Arcadia, Florida
Current Conditions -  °F | °C
As of 5:13 AM on Friday 19 Dec 2014 (Local Time) from KPGD Reporting Station
Haze Haze  
Wind Chill: 45°   Ceiling: Unl
Heat Index: 45°   Visibility: 2.5mi
Dew Point: 45°   Wind: 3mph
Humidity: 100%   Direction: 70°ENE
Pressure: 30.11"   Gusts: NA
Location:  27.22°N, 81.86°W
Report Text: KPGD 191013Z AUTO 07003KT 2 1/2SM BR CLR 07/07 A3011 RMK AO2 T00720072
Loading
Personal Weather Stations






























Interactive Weather Map New forecast layout! Learn more

10-Day Weather Forecast

Advertisements
Track Severe Weather on mobile